
Distance (Route):
Temperature : 0°C
Humidity : 0%
Pressure : 0hPa| Receiver | Date | Latitude | Longitude | Direction | Speed | Altitude | Climb | Temperature | Humidity | Pressure | Voltage | Killtimer | Uptime | BKT | XDATA |
|---|---|---|---|---|---|---|---|---|---|---|---|---|---|---|---|
| SQ9PSP-11 | 2026-08-31 10:36:53 | 51.08686 | 21.87931 | 97° | 38km/h | 15220m | -17.9m/s | 0°C | 0% | 0hPa | 0V | 00:00:00 | 00:00:00 | 00:00:00 | |
| SQ9PSP-11 | 2026-08-31 10:36:02 | 51.08517 | 21.87110 | 76° | 42km/h | 16145m | -20.3m/s | 0°C | 0% | 0hPa | 0V | 00:00:00 | 00:00:00 | 00:00:00 | |
| SQ9PSP-11 | 2026-08-31 10:35:46 | 51.08456 | 21.86910 | 71° | 31km/h | 16456m | -19.7m/s | 0°C | 0% | 0hPa | 0V | 00:00:00 | 00:00:00 | 00:00:00 | |
| SP9KGR-15 | 2026-08-31 10:34:06 | 51.08111 | 21.86232 | 12° | 18km/h | 18478m | -17.8m/s | 0°C | 0% | 0hPa | 0V | 00:00:00 | 00:00:00 | 00:00:00 | |
| SQ9PSP-11 | 2026-08-31 10:34:05 | 51.08106 | 21.86230 | 14° | 20km/h | 18497m | -20.6m/s | 0°C | 0% | 0hPa | 0V | 00:00:00 | 00:00:00 | 00:00:00 | |
| SQ9PSP-11 | 2026-08-31 10:33:43 | 51.07960 | 21.86135 | 358° | 33km/h | 18591m | 3.1m/s | 0°C | 0% | 0hPa | 0V | 00:00:00 | 00:00:00 | 00:00:00 | |
| SP9KGR-15 | 2026-08-31 10:33:36 | 51.07918 | 21.86118 | 349° | 33km/h | 18561m | 4.9m/s | 0°C | 0% | 0hPa | 0V | 00:00:00 | 00:00:00 | 00:00:00 | |
| SQ9PSP-11 | 2026-08-31 10:33:27 | 51.07874 | 21.86103 | 349° | 7km/h | 18525m | 2.5m/s | 0°C | 0% | 0hPa | 0V | 00:00:00 | 00:00:00 | 00:00:00 | |
| SQ9PSP-11 | 2026-08-31 10:32:54 | 51.07771 | 21.86021 | 30° | 22km/h | 18395m | 6.2m/s | 0°C | 0% | 0hPa | 0V | 00:00:00 | 00:00:00 | 00:00:00 | |
| SQ9PSP-11 | 2026-08-31 10:32:25 | 51.07737 | 21.85885 | 95° | 31km/h | 18283m | 1.8m/s | 0°C | 0% | 0hPa | 0V | 00:00:00 | 00:00:00 | 00:00:00 | |
| SQ9PSP-11 | 2026-08-31 10:31:50 | 51.07696 | 21.85582 | 92° | 15km/h | 18141m | 0.8m/s | 0°C | 0% | 0hPa | 0V | 00:00:00 | 00:00:00 | 00:00:00 | |
| SP9KGR-15 | 2026-08-31 10:30:53 | 51.07550 | 21.85195 | 287° | 5km/h | 17919m | 4.7m/s | 0°C | 0% | 0hPa | 0V | 00:00:00 | 00:00:00 | 00:00:00 | |
| SP9KGR-15 | 2026-08-31 10:30:37 | 51.07488 | 21.85105 | 27° | 37km/h | 17855m | 0.7m/s | 0°C | 0% | 0hPa | 0V | 00:00:00 | 00:00:00 | 00:00:00 | |
| SP9KGR-15 | 2026-08-31 10:30:19 | 51.07432 | 21.85000 | 42° | 26km/h | 17786m | 3.5m/s | 0°C | 0% | 0hPa | 0V | 00:00:00 | 00:00:00 | 00:00:00 | |
| SP9KGR-15 | 2026-08-31 10:29:55 | 51.07344 | 21.84824 | 37° | 31km/h | 17694m | 2.5m/s | 0°C | 0% | 0hPa | 0V | 00:00:00 | 00:00:00 | 00:00:00 | |
| SP9KGR-15 | 2026-08-31 10:28:56 | 51.07129 | 21.84206 | 30° | 27km/h | 17455m | 1.8m/s | 0°C | 0% | 0hPa | 0V | 00:00:00 | 00:00:00 | 00:00:00 | |
| SP9KGR-15 | 2026-08-31 10:28:37 | 51.07037 | 21.84004 | 42° | 42km/h | 17370m | 3.1m/s | 0°C | 0% | 0hPa | 0V | 00:00:00 | 00:00:00 | 00:00:00 | |
| SP9KGR-15 | 2026-08-31 10:27:54 | 51.06768 | 21.83670 | 65° | 27km/h | 17219m | 2.9m/s | 0°C | 0% | 0hPa | 0V | 00:00:00 | 00:00:00 | 00:00:00 | |
| SP9KGR-15 | 2026-08-31 10:27:32 | 51.06632 | 21.83550 | 21° | 38km/h | 17132m | 1.1m/s | 0°C | 0% | 0hPa | 0V | 00:00:00 | 00:00:00 | 00:00:00 | |
| SP9KGR-15 | 2026-08-31 10:27:11 | 51.06503 | 21.83449 | 41° | 29km/h | 17047m | 1.3m/s | 0°C | 0% | 0hPa | 0V | 00:00:00 | 00:00:00 | 00:00:00 | |
| SQ9PSP-11 | 2026-08-31 10:27:08 | 51.06487 | 21.83444 | 39° | 37km/h | 17041m | 0.3m/s | 0°C | 0% | 0hPa | 0V | 00:00:00 | 00:00:00 | 00:00:00 | |
| SP9KGR-15 | 2026-08-31 10:26:55 | 51.06424 | 21.83427 | 35° | 29km/h | 16984m | 2.0m/s | 0°C | 0% | 0hPa | 0V | 00:00:00 | 00:00:00 | 00:00:00 | |
| SP9KGR-15 | 2026-08-31 10:26:40 | 51.06369 | 21.83391 | 52° | 29km/h | 16932m | 1.0m/s | 0°C | 0% | 0hPa | 0V | 00:00:00 | 00:00:00 | 00:00:00 | |
| SQ9PSP-11 | 2026-08-31 10:26:21 | 51.06317 | 21.83322 | 68° | 31km/h | 16856m | 3.2m/s | 0°C | 0% | 0hPa | 0V | 00:00:00 | 00:00:00 | 00:00:00 | |
| SP9KGR-15 | 2026-08-31 10:26:06 | 51.06287 | 21.83246 | 43° | 24km/h | 16796m | 0.8m/s | 0°C | 0% | 0hPa | 0V | 00:00:00 | 00:00:00 | 00:00:00 | |
| SP9KGR-15 | 2026-08-31 10:25:35 | 51.06242 | 21.82993 | 78° | 22km/h | 16680m | 1.6m/s | 0°C | 0% | 0hPa | 0V | 00:00:00 | 00:00:00 | 00:00:00 | |
| SP9KGR-15 | 2026-08-31 10:25:19 | 51.06214 | 21.82829 | 61° | 16km/h | 16611m | 1.0m/s | 0°C | 0% | 0hPa | 0V | 00:00:00 | 00:00:00 | 00:00:00 | |
| SP9KGR-15 | 2026-08-31 10:25:04 | 51.06184 | 21.82683 | 75° | 42km/h | 16557m | 3.6m/s | 0°C | 0% | 0hPa | 0V | 00:00:00 | 00:00:00 | 00:00:00 | |
| SP9KGR-15 | 2026-08-31 10:24:48 | 51.06148 | 21.82507 | 43° | 18km/h | 16494m | 4.2m/s | 0°C | 0% | 0hPa | 0V | 00:00:00 | 00:00:00 | 00:00:00 | |
| SQ9PSP-11 | 2026-08-31 10:24:35 | 51.06100 | 21.82342 | 42° | 37km/h | 16444m | 2.6m/s | 0°C | 0% | 0hPa | 0V | 00:00:00 | 00:00:00 | 00:00:00 | |
| SP9KGR-15 | 2026-08-31 10:24:30 | 51.06079 | 21.82283 | 92° | 33km/h | 16422m | 1.8m/s | 0°C | 0% | 0hPa | 0V | 00:00:00 | 00:00:00 | 00:00:00 | |
| SP9KGR-15 | 2026-08-31 10:24:13 | 51.06012 | 21.82097 | 85° | 20km/h | 16362m | 0.6m/s | 0°C | 0% | 0hPa | 0V | 00:00:00 | 00:00:00 | 00:00:00 | |
| SQ9PSP-11 | 2026-08-31 10:24:11 | 51.06003 | 21.82080 | 48° | 33km/h | 16353m | 2.0m/s | 0°C | 0% | 0hPa | 0V | 00:00:00 | 00:00:00 | 00:00:00 | |
| SP9KGR-15 | 2026-08-31 10:23:56 | 51.05949 | 21.81938 | 59° | 42km/h | 16298m | 2.6m/s | 0°C | 0% | 0hPa | 0V | 00:00:00 | 00:00:00 | 00:00:00 | |
| SP9KGR-15 | 2026-08-31 10:23:38 | 51.05905 | 21.81725 | 61° | 49km/h | 16229m | 0.3m/s | 0°C | 0% | 0hPa | 0V | 00:00:00 | 00:00:00 | 00:00:00 | |
| SP9KGR-15 | 2026-08-31 10:23:16 | 51.05850 | 21.81369 | 78° | 42km/h | 16143m | 4.1m/s | 0°C | 0% | 0hPa | 0V | 00:00:00 | 00:00:00 | 00:00:00 | |
| SP9KGR-15 | 2026-08-31 10:23:01 | 51.05807 | 21.81090 | 76° | 57km/h | 16087m | 1.4m/s | 0°C | 0% | 0hPa | 0V | 00:00:00 | 00:00:00 | 00:00:00 | |
| SP9KGR-15 | 2026-08-31 10:22:38 | 51.05777 | 21.80703 | 82° | 57km/h | 16006m | 2.2m/s | 0°C | 0% | 0hPa | 0V | 00:00:00 | 00:00:00 | 00:00:00 | |
| SP9KGR-15 | 2026-08-31 10:22:20 | 51.05732 | 21.80373 | 73° | 66km/h | 15942m | 2.2m/s | 0°C | 0% | 0hPa | 0V | 00:00:00 | 00:00:00 | 00:00:00 | |
| SP9KGR-15 | 2026-08-31 10:22:03 | 51.05673 | 21.80011 | 75° | 51km/h | 15881m | 1.0m/s | 0°C | 0% | 0hPa | 0V | 00:00:00 | 00:00:00 | 00:00:00 | |
| SQ9PSP-11 | 2026-08-31 10:21:54 | 51.05627 | 21.79806 | 79° | 46km/h | 15848m | 0.4m/s | 0°C | 0% | 0hPa | 0V | 00:00:00 | 00:00:00 | 00:00:00 | |
| SP9KGR-15 | 2026-08-31 10:21:47 | 51.05589 | 21.79669 | 52° | 49km/h | 15823m | 1.9m/s | 0°C | 0% | 0hPa | 0V | 00:00:00 | 00:00:00 | 00:00:00 | |
| SP9KGR-15 | 2026-08-31 10:21:26 | 51.05446 | 21.79278 | 55° | 62km/h | 15747m | 1.7m/s | 0°C | 0% | 0hPa | 0V | 00:00:00 | 00:00:00 | 00:00:00 | |
| SQ9PSP-11 | 2026-08-31 10:21:25 | 51.05437 | 21.79262 | 38° | 42km/h | 15743m | 4.6m/s | 0°C | 0% | 0hPa | 0V | 00:00:00 | 00:00:00 | 00:00:00 | |
| SP9KGR-15 | 2026-08-31 10:21:08 | 51.05317 | 21.79003 | 38° | 51km/h | 15680m | 3.0m/s | 0°C | 0% | 0hPa | 0V | 00:00:00 | 00:00:00 | 00:00:00 | |
| SP9KGR-15 | 2026-08-31 10:20:50 | 51.05195 | 21.78760 | 45° | 31km/h | 15617m | 1.0m/s | 0°C | 0% | 0hPa | 0V | 00:00:00 | 00:00:00 | 00:00:00 | |
| SP9KGR-15 | 2026-08-31 10:20:16 | 51.05039 | 21.78377 | 70° | 16km/h | 15485m | 1.6m/s | 0°C | 0% | 0hPa | 0V | 00:00:00 | 00:00:00 | 00:00:00 | |
| SQ9PSP-11 | 2026-08-31 10:20:09 | 51.05019 | 21.78296 | 56° | 26km/h | 15458m | 2.4m/s | 0°C | 0% | 0hPa | 0V | 00:00:00 | 00:00:00 | 00:00:00 | |
| SP9KGR-15 | 2026-08-31 10:19:57 | 51.05003 | 21.78153 | 96° | 15km/h | 15412m | 4.3m/s | 0°C | 0% | 0hPa | 0V | 00:00:00 | 00:00:00 | 00:00:00 | |
| SP9KGR-15 | 2026-08-31 10:19:35 | 51.04997 | 21.77884 | 84° | 33km/h | 15328m | 1.1m/s | 0°C | 0% | 0hPa | 0V | 00:00:00 | 00:00:00 | 00:00:00 | |
| SP9KGR-15 | 2026-08-31 10:19:16 | 51.05031 | 21.77621 | 91° | 49km/h | 15253m | 0.8m/s | 0°C | 0% | 0hPa | 0V | 00:00:00 | 00:00:00 | 00:00:00 | |
| SP9KGR-15 | 2026-08-31 10:18:58 | 51.05057 | 21.77317 | 98° | 29km/h | 15187m | 1.5m/s | 0°C | 0% | 0hPa | 0V | 00:00:00 | 00:00:00 | 00:00:00 | |
| SP9KGR-15 | 2026-08-31 10:18:41 | 51.05066 | 21.77000 | 102° | 51km/h | 15121m | 0.5m/s | 0°C | 0% | 0hPa | 0V | 00:00:00 | 00:00:00 | 00:00:00 | |
| SP9KGR-15 | 2026-08-31 10:18:23 | 51.05062 | 21.76618 | 78° | 71km/h | 15054m | 2.6m/s | 0°C | 0% | 0hPa | 0V | 00:00:00 | 00:00:00 | 00:00:00 | |
| SP9KGR-15 | 2026-08-31 10:18:06 | 51.05053 | 21.76223 | 95° | 57km/h | 14991m | 1.6m/s | 0°C | 0% | 0hPa | 0V | 00:00:00 | 00:00:00 | 00:00:00 | |
| SP9KGR-15 | 2026-08-31 10:17:46 | 51.05020 | 21.75785 | 78° | 69km/h | 14918m | 1.9m/s | 0°C | 0% | 0hPa | 0V | 00:00:00 | 00:00:00 | 00:00:00 | |
| SP9KGR-15 | 2026-08-31 10:16:56 | 51.04924 | 21.74691 | 96° | 66km/h | 14743m | -0.1m/s | 0°C | 0% | 0hPa | 0V | 00:00:00 | 00:00:00 | 00:00:00 | |
| SP9KGR-15 | 2026-08-31 10:16:39 | 51.04895 | 21.74300 | 89° | 46km/h | 14683m | 1.6m/s | 0°C | 0% | 0hPa | 0V | 00:00:00 | 00:00:00 | 00:00:00 | |
| SP9KGR-15 | 2026-08-31 10:16:23 | 51.04860 | 21.73960 | 81° | 37km/h | 14626m | 2.5m/s | 0°C | 0% | 0hPa | 0V | 00:00:00 | 00:00:00 | 00:00:00 | |
| SP9KGR-15 | 2026-08-31 10:16:06 | 51.04850 | 21.73611 | 80° | 71km/h | 14559m | 0.7m/s | 0°C | 0% | 0hPa | 0V | 00:00:00 | 00:00:00 | 00:00:00 | |
| SP9KGR-15 | 2026-08-31 10:15:50 | 51.04862 | 21.73266 | 90° | 64km/h | 14498m | 4.1m/s | 0°C | 0% | 0hPa | 0V | 00:00:00 | 00:00:00 | 00:00:00 | |
| SP9KGR-15 | 2026-08-31 10:15:33 | 51.04903 | 21.72886 | 111° | 68km/h | 14437m | 1.1m/s | 0°C | 0% | 0hPa | 0V | 00:00:00 | 00:00:00 | 00:00:00 | |
| SP9KGR-15 | 2026-08-31 10:15:13 | 51.04953 | 21.72384 | 107° | 78km/h | 14360m | 1.2m/s | 0°C | 0% | 0hPa | 0V | 00:00:00 | 00:00:00 | 00:00:00 | |
| SQ9PSP-11 | 2026-08-31 10:14:59 | 51.05001 | 21.72020 | 116° | 53km/h | 14310m | 2.1m/s | 0°C | 0% | 0hPa | 0V | 00:00:00 | 00:00:00 | 00:00:00 | |
| SP9KGR-15 | 2026-08-31 10:14:55 | 51.05017 | 21.71914 | 95° | 66km/h | 14293m | 2.9m/s | 0°C | 0% | 0hPa | 0V | 00:00:00 | 00:00:00 | 00:00:00 | |
| SQ9PSP-11 | 2026-08-31 10:14:38 | 51.05068 | 21.71425 | 105° | 75km/h | 14234m | -0.4m/s | 0°C | 0% | 0hPa | 0V | 00:00:00 | 00:00:00 | 00:00:00 | |
| SP9KGR-15 | 2026-08-31 10:14:36 | 51.05070 | 21.71364 | 93° | 78km/h | 14228m | -0.5m/s | 0°C | 0% | 0hPa | 0V | 00:00:00 | 00:00:00 | 00:00:00 | |
| SP9KGR-15 | 2026-08-31 10:14:19 | 51.05114 | 21.70837 | 94° | 97km/h | 14169m | 0.7m/s | 0°C | 0% | 0hPa | 0V | 00:00:00 | 00:00:00 | 00:00:00 | |
| SQ9PSP-11 | 2026-08-31 10:14:15 | 51.05115 | 21.70706 | 92° | 89km/h | 14153m | 1.0m/s | 0°C | 0% | 0hPa | 0V | 00:00:00 | 00:00:00 | 00:00:00 | |
| SQ9PSP-11 | 2026-08-31 10:13:58 | 51.05090 | 21.70117 | 88° | 82km/h | 14080m | 3.7m/s | 0°C | 0% | 0hPa | 0V | 00:00:00 | 00:00:00 | 00:00:00 | |
| SP9KGR-15 | 2026-08-31 10:13:39 | 51.04999 | 21.69431 | 89° | 88km/h | 14015m | 0.1m/s | 0°C | 0% | 0hPa | 0V | 00:00:00 | 00:00:00 | 00:00:00 | |
| SQ9PSP-11 | 2026-08-31 10:12:57 | 51.04787 | 21.67993 | 74° | 88km/h | 13858m | 3.0m/s | 0°C | 0% | 0hPa | 0V | 00:00:00 | 00:00:00 | 00:00:00 | |
| SQ9PSP-11 | 2026-08-31 10:12:42 | 51.04713 | 21.67517 | 69° | 88km/h | 13801m | 3.0m/s | 0°C | 0% | 0hPa | 0V | 00:00:00 | 00:00:00 | 00:00:00 | |
| SQ9PSP-11 | 2026-08-31 10:12:26 | 51.04629 | 21.66995 | 73° | 84km/h | 13741m | 4.1m/s | 0°C | 0% | 0hPa | 0V | 00:00:00 | 00:00:00 | 00:00:00 | |
| SQ9PSP-11 | 2026-08-31 10:12:10 | 51.04557 | 21.66499 | 73° | 88km/h | 13681m | 4.5m/s | 0°C | 0% | 0hPa | 0V | 00:00:00 | 00:00:00 | 00:00:00 | |
| SQ9PSP-11 | 2026-08-31 10:11:54 | 51.04490 | 21.65989 | 91° | 68km/h | 13625m | 1.8m/s | 0°C | 0% | 0hPa | 0V | 00:00:00 | 00:00:00 | 00:00:00 | |
| SP9KGR-15 | 2026-08-31 10:11:46 | 51.04465 | 21.65730 | 76° | 97km/h | 13597m | 2.6m/s | 0°C | 0% | 0hPa | 0V | 00:00:00 | 00:00:00 | 00:00:00 | |
| SQ9PSP-11 | 2026-08-31 10:11:34 | 51.04426 | 21.65330 | 79° | 89km/h | 13547m | 3.0m/s | 0°C | 0% | 0hPa | 0V | 00:00:00 | 00:00:00 | 00:00:00 | |
| SP9KGR-15 | 2026-08-31 10:11:08 | 51.04345 | 21.64380 | 83° | 84km/h | 13454m | 0.7m/s | 0°C | 0% | 0hPa | 0V | 00:00:00 | 00:00:00 | 00:00:00 | |
| SQ9PSP-11 | 2026-08-31 10:11:02 | 51.04327 | 21.64149 | 79° | 82km/h | 13432m | 1.7m/s | 0°C | 0% | 0hPa | 0V | 00:00:00 | 00:00:00 | 00:00:00 | |
| SP9KGR-15 | 2026-08-31 10:10:48 | 51.04289 | 21.63634 | 77° | 97km/h | 13381m | 0.3m/s | 0°C | 0% | 0hPa | 0V | 00:00:00 | 00:00:00 | 00:00:00 | |
| SQ9PSP-11 | 2026-08-31 10:10:45 | 51.04282 | 21.63525 | 75° | 100km/h | 13369m | 0.7m/s | 0°C | 0% | 0hPa | 0V | 00:00:00 | 00:00:00 | 00:00:00 | |
| SQ9PSP-11 | 2026-08-31 10:10:27 | 51.04234 | 21.62868 | 77° | 93km/h | 13302m | 0.8m/s | 0°C | 0% | 0hPa | 0V | 00:00:00 | 00:00:00 | 00:00:00 | |
| SP9KGR-15 | 2026-08-31 10:10:13 | 51.04208 | 21.62354 | 92° | 93km/h | 13244m | 2.7m/s | 0°C | 0% | 0hPa | 0V | 00:00:00 | 00:00:00 | 00:00:00 | |
| SQ9PSP-11 | 2026-08-31 10:10:04 | 51.04198 | 21.62017 | 84° | 84km/h | 13209m | 2.9m/s | 0°C | 0% | 0hPa | 0V | 00:00:00 | 00:00:00 | 00:00:00 | |
| SQ9PSP-11 | 2026-08-31 10:09:45 | 51.04181 | 21.61272 | 83° | 104km/h | 13137m | 3.6m/s | 0°C | 0% | 0hPa | 0V | 00:00:00 | 00:00:00 | 00:00:00 | |
| SP9KGR-15 | 2026-08-31 10:07:27 | 51.03880 | 21.54993 | 88° | 110km/h | 12626m | 3.3m/s | 0°C | 0% | 0hPa | 0V | 00:00:00 | 00:00:00 | 00:00:00 | |
| SP9KGR-15 | 2026-08-31 10:05:59 | 51.03552 | 21.51041 | 88° | 102km/h | 12307m | 0.8m/s | 0°C | 0% | 0hPa | 0V | 00:00:00 | 00:00:00 | 00:00:00 | |
| SP9KGR-15 | 2026-08-31 10:05:06 | 51.03429 | 21.48617 | 78° | 110km/h | 12124m | 1.8m/s | 0°C | 0% | 0hPa | 0V | 00:00:00 | 00:00:00 | 00:00:00 | |
| SP9KGR-15 | 2026-08-31 10:04:49 | 51.03382 | 21.47864 | 80° | 115km/h | 12068m | 2.1m/s | 0°C | 0% | 0hPa | 0V | 00:00:00 | 00:00:00 | 00:00:00 | |
| SQ9EZE-16 | 2026-08-31 10:04:14 | 51.03331 | 21.46312 | 96° | 111km/h | 11951m | 2.1m/s | 0°C | 0% | 0hPa | 0V | 00:00:00 | 00:00:00 | 00:00:00 | |
| SQ9EZE-16 | 2026-08-31 10:03:58 | 51.03300 | 21.45582 | 84° | 131km/h | 11898m | 2.0m/s | 0°C | 0% | 0hPa | 0V | 00:00:00 | 00:00:00 | 00:00:00 | |
| SP9KGR-15 | 2026-08-31 10:03:56 | 51.03294 | 21.45493 | 90° | 108km/h | 11890m | 1.3m/s | 0°C | 0% | 0hPa | 0V | 00:00:00 | 00:00:00 | 00:00:00 | |
| SQ9EZE-16 | 2026-08-31 10:03:41 | 51.03258 | 21.44806 | 95° | 115km/h | 11841m | 2.0m/s | 0°C | 0% | 0hPa | 0V | 00:00:00 | 00:00:00 | 00:00:00 | |
| SQ9EZE-16 | 2026-08-31 10:03:25 | 51.03224 | 21.44079 | 80° | 113km/h | 11787m | 0.5m/s | 0°C | 0% | 0hPa | 0V | 00:00:00 | 00:00:00 | 00:00:00 | |
| SQ9EZE-16 | 2026-08-31 10:03:09 | 51.03193 | 21.43358 | 87° | 108km/h | 11731m | 2.2m/s | 0°C | 0% | 0hPa | 0V | 00:00:00 | 00:00:00 | 00:00:00 | |
| SQ9EZE-16 | 2026-08-31 10:02:54 | 51.03164 | 21.42679 | 87° | 131km/h | 11681m | 0.8m/s | 0°C | 0% | 0hPa | 0V | 00:00:00 | 00:00:00 | 00:00:00 | |
| SQ9EZE-16 | 2026-08-31 10:02:36 | 51.03131 | 21.41858 | 93° | 113km/h | 11618m | 1.4m/s | 0°C | 0% | 0hPa | 0V | 00:00:00 | 00:00:00 | 00:00:00 | |
| SQ9EZE-16 | 2026-08-31 10:02:15 | 51.03072 | 21.40924 | 78° | 115km/h | 11543m | 2.0m/s | 0°C | 0% | 0hPa | 0V | 00:00:00 | 00:00:00 | 00:00:00 | |
| SQ9EZE-16 | 2026-08-31 10:01:59 | 51.03015 | 21.40200 | 90° | 130km/h | 11487m | 4.6m/s | 0°C | 0% | 0hPa | 0V | 00:00:00 | 00:00:00 | 00:00:00 | |
| SQ9EZE-16 | 2026-08-31 10:01:43 | 51.02956 | 21.39489 | 83° | 108km/h | 11424m | 3.3m/s | 0°C | 0% | 0hPa | 0V | 00:00:00 | 00:00:00 | 00:00:00 | |
| SQ9EZE-16 | 2026-08-31 10:01:28 | 51.02898 | 21.38814 | 90° | 120km/h | 11370m | 3.2m/s | 0°C | 0% | 0hPa | 0V | 00:00:00 | 00:00:00 | 00:00:00 | |
| SQ9EZE-16 | 2026-08-31 10:01:10 | 51.02829 | 21.37987 | 87° | 115km/h | 11299m | 2.5m/s | 0°C | 0% | 0hPa | 0V | 00:00:00 | 00:00:00 | 00:00:00 | |
| SQ9EZE-16 | 2026-08-31 10:00:52 | 51.02743 | 21.37164 | 79° | 120km/h | 11229m | 2.1m/s | 0°C | 0% | 0hPa | 0V | 00:00:00 | 00:00:00 | 00:00:00 | |
| SQ9EZE-16 | 2026-08-31 10:00:34 | 51.02662 | 21.36351 | 87° | 106km/h | 11158m | 1.6m/s | 0°C | 0% | 0hPa | 0V | 00:00:00 | 00:00:00 | 00:00:00 | |
| SQ9EZE-16 | 2026-08-31 10:00:16 | 51.02572 | 21.35536 | 83° | 120km/h | 11090m | 1.9m/s | 0°C | 0% | 0hPa | 0V | 00:00:00 | 00:00:00 | 00:00:00 | |
| SQ9EZE-16 | 2026-08-31 09:59:58 | 51.02485 | 21.34763 | 76° | 97km/h | 11022m | 3.0m/s | 0°C | 0% | 0hPa | 0V | 00:00:00 | 00:00:00 | 00:00:00 | |
| SQ9EZE-16 | 2026-08-31 09:59:43 | 51.02410 | 21.34131 | 84° | 120km/h | 10964m | 1.2m/s | 0°C | 0% | 0hPa | 0V | 00:00:00 | 00:00:00 | 00:00:00 | |
| SQ9EZE-16 | 2026-08-31 09:59:28 | 51.02332 | 21.33507 | 77° | 91km/h | 10909m | 1.0m/s | 0°C | 0% | 0hPa | 0V | 00:00:00 | 00:00:00 | 00:00:00 | |
| SQ9EZE-16 | 2026-08-31 09:59:11 | 51.02251 | 21.32809 | 83° | 93km/h | 10844m | 1.1m/s | 0°C | 0% | 0hPa | 0V | 00:00:00 | 00:00:00 | 00:00:00 | |
| SQ9EZE-16 | 2026-08-31 09:58:51 | 51.02159 | 21.31989 | 76° | 110km/h | 10771m | 4.4m/s | 0°C | 0% | 0hPa | 0V | 00:00:00 | 00:00:00 | 00:00:00 | |
| SQ9EZE-16 | 2026-08-31 09:58:28 | 51.02045 | 21.31050 | 72° | 97km/h | 10688m | 1.6m/s | 0°C | 0% | 0hPa | 0V | 00:00:00 | 00:00:00 | 00:00:00 | |
| SQ9EZE-16 | 2026-08-31 09:58:10 | 51.01962 | 21.30327 | 86° | 110km/h | 10621m | 2.2m/s | 0°C | 0% | 0hPa | 0V | 00:00:00 | 00:00:00 | 00:00:00 | |
| SP9KGR-15 | 2026-08-31 09:57:54 | 51.01879 | 21.29689 | 73° | 100km/h | 10562m | 2.2m/s | 0°C | 0% | 0hPa | 0V | 00:00:00 | 00:00:00 | 00:00:00 | |
| SQ9EZE-16 | 2026-08-31 09:57:39 | 51.01808 | 21.29099 | 80° | 106km/h | 10506m | 1.7m/s | 0°C | 0% | 0hPa | 0V | 00:00:00 | 00:00:00 | 00:00:00 | |
| SQ9EZE-16 | 2026-08-31 09:57:22 | 51.01737 | 21.28462 | 81° | 104km/h | 10449m | 3.1m/s | 0°C | 0% | 0hPa | 0V | 00:00:00 | 00:00:00 | 00:00:00 | |
| SQ9EZE-16 | 2026-08-31 09:56:13 | 51.01434 | 21.26135 | 76° | 100km/h | 10218m | 3.7m/s | 0°C | 0% | 0hPa | 0V | 00:00:00 | 00:00:00 | 00:00:00 | |
| SP9KGR-15 | 2026-08-31 09:55:53 | 51.01335 | 21.25465 | 81° | 78km/h | 10151m | 1.5m/s | 0°C | 0% | 0hPa | 0V | 00:00:00 | 00:00:00 | 00:00:00 | |
| SQ9EZE-16 | 2026-08-31 09:55:24 | 51.01189 | 21.24483 | 74° | 100km/h | 10058m | 1.7m/s | 0°C | 0% | 0hPa | 0V | 00:00:00 | 00:00:00 | 00:00:00 | |
| SQ9EZE-16 | 2026-08-31 09:54:35 | 51.00954 | 21.22809 | 81° | 75km/h | 9895m | 1.5m/s | 0°C | 0% | 0hPa | 0V | 00:00:00 | 00:00:00 | 00:00:00 | |
| SP9KGR-15 | 2026-08-31 09:54:31 | 51.00937 | 21.22672 | 80° | 99km/h | 9882m | 2.4m/s | 0°C | 0% | 0hPa | 0V | 00:00:00 | 00:00:00 | 00:00:00 | |
| SQ9EZE-16 | 2026-08-31 09:54:18 | 51.00879 | 21.22240 | 80° | 97km/h | 9837m | 1.1m/s | 0°C | 0% | 0hPa | 0V | 00:00:00 | 00:00:00 | 00:00:00 | |
| SQ9EZE-16 | 2026-08-31 09:53:55 | 51.00772 | 21.21479 | 77° | 78km/h | 9760m | 2.4m/s | 0°C | 0% | 0hPa | 0V | 00:00:00 | 00:00:00 | 00:00:00 | |
| SQ9EZE-16 | 2026-08-31 09:53:31 | 51.00675 | 21.20700 | 86° | 77km/h | 9676m | 2.8m/s | 0°C | 0% | 0hPa | 0V | 00:00:00 | 00:00:00 | 00:00:00 | |
| SQ9EZE-16 | 2026-08-31 09:53:14 | 51.00613 | 21.20148 | 76° | 73km/h | 9618m | 2.5m/s | 0°C | 0% | 0hPa | 0V | 00:00:00 | 00:00:00 | 00:00:00 | |
| SQ9EZE-16 | 2026-08-31 09:52:59 | 51.00559 | 21.19677 | 81° | 95km/h | 9567m | 1.8m/s | 0°C | 0% | 0hPa | 0V | 00:00:00 | 00:00:00 | 00:00:00 | |
| SQ9EZE-16 | 2026-08-31 09:52:43 | 51.00504 | 21.19184 | 80° | 91km/h | 9512m | 2.3m/s | 0°C | 0% | 0hPa | 0V | 00:00:00 | 00:00:00 | 00:00:00 | |
| SQ9EZE-16 | 2026-08-31 09:52:27 | 51.00442 | 21.18690 | 81° | 95km/h | 9452m | 1.2m/s | 0°C | 0% | 0hPa | 0V | 00:00:00 | 00:00:00 | 00:00:00 | |
| SQ9EZE-16 | 2026-08-31 09:52:11 | 51.00377 | 21.18209 | 78° | 86km/h | 9395m | 1.5m/s | 0°C | 0% | 0hPa | 0V | 00:00:00 | 00:00:00 | 00:00:00 | |
| SQ9EZE-16 | 2026-08-31 09:51:51 | 51.00272 | 21.17625 | 80° | 77km/h | 9321m | 2.8m/s | 0°C | 0% | 0hPa | 0V | 00:00:00 | 00:00:00 | 00:00:00 | |
| SQ9EZE-16 | 2026-08-31 09:51:34 | 51.00170 | 21.17153 | 76° | 71km/h | 9256m | 3.2m/s | 0°C | 0% | 0hPa | 0V | 00:00:00 | 00:00:00 | 00:00:00 | |
| SQ9EZE-16 | 2026-08-31 09:51:13 | 51.00038 | 21.16588 | 76° | 71km/h | 9181m | 2.9m/s | 0°C | 0% | 0hPa | 0V | 00:00:00 | 00:00:00 | 00:00:00 | |
| SQ9EZE-16 | 2026-08-31 09:50:54 | 50.99924 | 21.16091 | 82° | 69km/h | 9112m | 2.3m/s | 0°C | 0% | 0hPa | 0V | 00:00:00 | 00:00:00 | 00:00:00 | |
| SQ9EZE-16 | 2026-08-31 09:50:39 | 50.99831 | 21.15706 | 73° | 73km/h | 9059m | 2.9m/s | 0°C | 0% | 0hPa | 0V | 00:00:00 | 00:00:00 | 00:00:00 | |
| SQ9EZE-16 | 2026-08-31 09:50:23 | 50.99736 | 21.15297 | 65° | 84km/h | 9005m | 2.5m/s | 0°C | 0% | 0hPa | 0V | 00:00:00 | 00:00:00 | 00:00:00 | |
| SQ9EZE-16 | 2026-08-31 09:50:03 | 50.99604 | 21.14788 | 68° | 84km/h | 8931m | 4.0m/s | 0°C | 0% | 0hPa | 0V | 00:00:00 | 00:00:00 | 00:00:00 | |
| SQ9EZE-16 | 2026-08-31 09:49:47 | 50.99492 | 21.14373 | 77° | 68km/h | 8874m | 3.7m/s | 0°C | 0% | 0hPa | 0V | 00:00:00 | 00:00:00 | 00:00:00 | |
| SQ9EZE-16 | 2026-08-31 09:49:28 | 50.99360 | 21.13872 | 70° | 64km/h | 8806m | 3.2m/s | 0°C | 0% | 0hPa | 0V | 00:00:00 | 00:00:00 | 00:00:00 | |
| SQ9EZE-16 | 2026-08-31 09:49:11 | 50.99239 | 21.13429 | 61° | 64km/h | 8749m | 2.4m/s | 0°C | 0% | 0hPa | 0V | 00:00:00 | 00:00:00 | 00:00:00 | |
| SQ9EZE-16 | 2026-08-31 09:48:55 | 50.99126 | 21.13020 | 65° | 82km/h | 8693m | 2.5m/s | 0°C | 0% | 0hPa | 0V | 00:00:00 | 00:00:00 | 00:00:00 | |
| SQ9EZE-16 | 2026-08-31 09:48:36 | 50.98997 | 21.12555 | 64° | 78km/h | 8628m | 3.0m/s | 0°C | 0% | 0hPa | 0V | 00:00:00 | 00:00:00 | 00:00:00 | |
| SQ9EZE-16 | 2026-08-31 09:48:20 | 50.98887 | 21.12179 | 58° | 60km/h | 8573m | 2.2m/s | 0°C | 0% | 0hPa | 0V | 00:00:00 | 00:00:00 | 00:00:00 | |
| SQ9EZE-16 | 2026-08-31 09:48:03 | 50.98766 | 21.11777 | 59° | 66km/h | 8513m | 3.0m/s | 0°C | 0% | 0hPa | 0V | 00:00:00 | 00:00:00 | 00:00:00 | |
| SQ9EZE-16 | 2026-08-31 09:47:47 | 50.98646 | 21.11397 | 56° | 55km/h | 8456m | 2.3m/s | 0°C | 0% | 0hPa | 0V | 00:00:00 | 00:00:00 | 00:00:00 | |
| SQ9EZE-16 | 2026-08-31 09:47:31 | 50.98525 | 21.11008 | 68° | 53km/h | 8402m | 2.5m/s | 0°C | 0% | 0hPa | 0V | 00:00:00 | 00:00:00 | 00:00:00 | |
| SQ9EZE-16 | 2026-08-31 09:47:13 | 50.98398 | 21.10570 | 67° | 82km/h | 8341m | 2.4m/s | 0°C | 0% | 0hPa | 0V | 00:00:00 | 00:00:00 | 00:00:00 | |
| SQ9EZE-16 | 2026-08-31 09:46:57 | 50.98292 | 21.10190 | 59° | 73km/h | 8285m | 2.1m/s | 0°C | 0% | 0hPa | 0V | 00:00:00 | 00:00:00 | 00:00:00 | |
| SQ9EZE-16 | 2026-08-31 09:46:41 | 50.98186 | 21.09821 | 63° | 80km/h | 8231m | 1.4m/s | 0°C | 0% | 0hPa | 0V | 00:00:00 | 00:00:00 | 00:00:00 | |
| SQ9EZE-16 | 2026-08-31 09:46:25 | 50.98079 | 21.09465 | 60° | 58km/h | 8176m | 1.9m/s | 0°C | 0% | 0hPa | 0V | 00:00:00 | 00:00:00 | 00:00:00 | |
| SQ9EZE-15 | 2026-08-31 09:46:21 | 50.98053 | 21.09377 | 71° | 62km/h | 8163m | 1.9m/s | 0°C | 0% | 0hPa | 0V | 00:00:00 | 00:00:00 | 00:00:00 | |
| SQ9EZE-16 | 2026-08-31 09:46:09 | 50.97967 | 21.09108 | 74° | 64km/h | 8122m | 2.3m/s | 0°C | 0% | 0hPa | 0V | 00:00:00 | 00:00:00 | 00:00:00 | |
| SQ9EZE-16 | 2026-08-31 09:45:53 | 50.97855 | 21.08742 | 72° | 64km/h | 8071m | 2.4m/s | 0°C | 0% | 0hPa | 0V | 00:00:00 | 00:00:00 | 00:00:00 | |
| SQ9EZE-16 | 2026-08-31 09:45:23 | 50.97642 | 21.08073 | 70° | 71km/h | 7974m | 3.7m/s | 0°C | 0% | 0hPa | 0V | 00:00:00 | 00:00:00 | 00:00:00 | |
| SQ9EZE-16 | 2026-08-31 09:45:06 | 50.97524 | 21.07702 | 68° | 69km/h | 7914m | 1.1m/s | 0°C | 0% | 0hPa | 0V | 00:00:00 | 00:00:00 | 00:00:00 | |
| SQ9EZE-16 | 2026-08-31 09:44:47 | 50.97402 | 21.07299 | 57° | 57km/h | 7851m | 3.2m/s | 0°C | 0% | 0hPa | 0V | 00:00:00 | 00:00:00 | 00:00:00 | |
| SQ9EZE-16 | 2026-08-31 09:44:26 | 50.97270 | 21.06833 | 76° | 69km/h | 7786m | 3.2m/s | 0°C | 0% | 0hPa | 0V | 00:00:00 | 00:00:00 | 00:00:00 | |
| SQ9EZE-16 | 2026-08-31 09:43:52 | 50.97051 | 21.06011 | 79° | 68km/h | 7674m | 1.9m/s | 0°C | 0% | 0hPa | 0V | 00:00:00 | 00:00:00 | 00:00:00 | |
| SQ9EZE-16 | 2026-08-31 09:43:36 | 50.96959 | 21.05609 | 73° | 80km/h | 7628m | 1.0m/s | 0°C | 0% | 0hPa | 0V | 00:00:00 | 00:00:00 | 00:00:00 | |
| SQ9EZE-16 | 2026-08-31 09:43:16 | 50.96852 | 21.05118 | 76° | 73km/h | 7564m | 1.5m/s | 0°C | 0% | 0hPa | 0V | 00:00:00 | 00:00:00 | 00:00:00 | |
| SQ9EZE-16 | 2026-08-31 09:42:59 | 50.96754 | 21.04724 | 73° | 51km/h | 7512m | 1.9m/s | 0°C | 0% | 0hPa | 0V | 00:00:00 | 00:00:00 | 00:00:00 | |
| SQ9EZE-16 | 2026-08-31 09:42:38 | 50.96636 | 21.04254 | 59° | 60km/h | 7446m | 2.3m/s | 0°C | 0% | 0hPa | 0V | 00:00:00 | 00:00:00 | 00:00:00 | |
| SQ9EZE-16 | 2026-08-31 09:42:22 | 50.96553 | 21.03915 | 65° | 62km/h | 7397m | 1.7m/s | 0°C | 0% | 0hPa | 0V | 00:00:00 | 00:00:00 | 00:00:00 | |
| SQ9EZE-16 | 2026-08-31 09:42:07 | 50.96486 | 21.03608 | 74° | 49km/h | 7348m | 2.2m/s | 0°C | 0% | 0hPa | 0V | 00:00:00 | 00:00:00 | 00:00:00 | |
| SQ9EZE-16 | 2026-08-31 09:41:51 | 50.96419 | 21.03260 | 73° | 68km/h | 7297m | 2.3m/s | 0°C | 0% | 0hPa | 0V | 00:00:00 | 00:00:00 | 00:00:00 | |
| SQ9EZE-16 | 2026-08-31 09:41:32 | 50.96334 | 21.02839 | 64° | 66km/h | 7233m | 2.5m/s | 0°C | 0% | 0hPa | 0V | 00:00:00 | 00:00:00 | 00:00:00 | |
| SQ9EZE-16 | 2026-08-31 09:41:13 | 50.96244 | 21.02418 | 79° | 60km/h | 7168m | 2.7m/s | 0°C | 0% | 0hPa | 0V | 00:00:00 | 00:00:00 | 00:00:00 | |
| SQ9EZE-16 | 2026-08-31 09:40:57 | 50.96173 | 21.02069 | 82° | 55km/h | 7113m | 2.1m/s | 0°C | 0% | 0hPa | 0V | 00:00:00 | 00:00:00 | 00:00:00 | |
| SQ9EZE-16 | 2026-08-31 09:40:38 | 50.96091 | 21.01672 | 78° | 53km/h | 7046m | 3.5m/s | 0°C | 0% | 0hPa | 0V | 00:00:00 | 00:00:00 | 00:00:00 | |
| SQ9EZE-16 | 2026-08-31 09:40:02 | 50.95930 | 21.00914 | 80° | 57km/h | 6920m | 3.3m/s | 0°C | 0% | 0hPa | 0V | 00:00:00 | 00:00:00 | 00:00:00 | |
| SQ9EZE-16 | 2026-08-31 09:39:47 | 50.95864 | 21.00593 | 75° | 66km/h | 6870m | 2.1m/s | 0°C | 0% | 0hPa | 0V | 00:00:00 | 00:00:00 | 00:00:00 | |
| SQ9EZE-16 | 2026-08-31 09:38:22 | 50.95508 | 20.98941 | 57° | 46km/h | 6591m | 2.1m/s | 0°C | 0% | 0hPa | 0V | 00:00:00 | 00:00:00 | 00:00:00 | |
| SQ9EZE-16 | 2026-08-31 09:37:52 | 50.95385 | 20.98468 | 71° | 37km/h | 6507m | 2.5m/s | 0°C | 0% | 0hPa | 0V | 00:00:00 | 00:00:00 | 00:00:00 | |
| SQ9EZE-16 | 2026-08-31 09:37:24 | 50.95285 | 20.98069 | 89° | 37km/h | 6426m | 1.6m/s | 0°C | 0% | 0hPa | 0V | 00:00:00 | 00:00:00 | 00:00:00 | |
| SQ9EZE-16 | 2026-08-31 09:37:07 | 50.95219 | 20.97834 | 75° | 46km/h | 6382m | 1.3m/s | 0°C | 0% | 0hPa | 0V | 00:00:00 | 00:00:00 | 00:00:00 | |
| SQ9EZE-16 | 2026-08-31 09:36:11 | 50.95056 | 20.97056 | 66° | 33km/h | 6224m | 2.7m/s | 0°C | 0% | 0hPa | 0V | 00:00:00 | 00:00:00 | 00:00:00 | |
| SQ9EZE-16 | 2026-08-31 09:35:56 | 50.95012 | 20.96838 | 69° | 49km/h | 6182m | 1.0m/s | 0°C | 0% | 0hPa | 0V | 00:00:00 | 00:00:00 | 00:00:00 | |
| SQ9EZE-16 | 2026-08-31 09:33:35 | 50.94487 | 20.95040 | 71° | 44km/h | 5765m | 3.5m/s | 0°C | 0% | 0hPa | 0V | 00:00:00 | 00:00:00 | 00:00:00 |